createdAt,value
2023-04-16T00:02:04.567Z,68.13
2023-04-16T00:04:31.761Z,64.88
2023-04-16T00:06:58.909Z,63.72
2023-04-16T00:09:25.725Z,72.18
2023-04-16T00:11:52.745Z,66.45
2023-04-16T00:14:19.591Z,61.35
2023-04-16T00:16:46.813Z,54.97
2023-04-16T00:19:13.615Z,52.25
2023-04-16T00:21:40.809Z,48.05
2023-04-16T00:24:07.537Z,55.22
2023-04-16T00:26:34.578Z,52.33
2023-04-16T00:29:01.438Z,49.97
2023-04-16T00:31:32.949Z,60.90
2023-04-16T00:36:27.995Z,52.03
2023-04-16T00:38:56.322Z,56.38
2023-04-16T00:41:23.888Z,57.20
2023-04-16T00:43:51.715Z,56.38
2023-04-16T00:46:26.083Z,54.03
2023-04-16T00:48:54.380Z,55.67
2023-04-16T00:51:22.319Z,56.13
2023-04-16T00:53:49.190Z,57.88
2023-04-16T00:56:17.617Z,65.35
2023-04-16T00:58:44.808Z,58.80
2023-04-16T01:01:14.235Z,61.63
2023-04-16T01:04:01.213Z,57.33
2023-04-16T01:06:28.400Z,60.75
2023-04-16T01:08:55.226Z,59.15
2023-04-16T01:11:22.205Z,54.95
2023-04-16T01:13:49.008Z,59.92
2023-04-16T01:16:16.077Z,49.70
2023-04-16T01:18:42.780Z,56.05
2023-04-16T01:21:09.749Z,55.75
2023-04-16T01:23:36.570Z,51.55
2023-04-16T01:26:03.624Z,52.03
2023-04-16T01:28:30.436Z,48.85
2023-04-16T01:30:57.555Z,49.40
2023-04-16T01:33:24.276Z,49.30
2023-04-16T01:35:51.406Z,47.47
2023-04-16T01:38:18.167Z,46.08
2023-04-16T01:40:45.350Z,45.97
2023-04-16T01:43:12.354Z,46.28
2023-04-16T01:45:39.514Z,39.42
2023-04-16T01:48:06.630Z,45.72
2023-04-16T01:50:33.843Z,47.05
2023-04-16T01:53:02.122Z,46.53
2023-04-16T01:55:29.147Z,39.63
2023-04-16T01:57:56.039Z,42.40
2023-04-16T02:00:23.021Z,46.28
2023-04-16T02:02:49.933Z,47.55
2023-04-16T02:05:17.033Z,52.47
2023-04-16T02:07:43.819Z,52.03
2023-04-16T02:10:11.003Z,51.95
2023-04-16T02:12:37.781Z,48.75
2023-04-16T02:15:05.445Z,46.17
2023-04-16T02:17:32.358Z,47.10
2023-04-16T02:19:59.597Z,54.95
2023-04-16T02:22:26.536Z,49.83
2023-04-16T02:24:53.628Z,56.47
2023-04-16T02:27:20.653Z,49.92
2023-04-16T02:29:47.662Z,65.55
2023-04-16T02:32:14.645Z,59.95
2023-04-16T02:34:43.034Z,60.80
2023-04-16T02:37:09.838Z,54.38
2023-04-16T02:39:36.965Z,59.55
2023-04-16T02:42:03.814Z,65.82
2023-04-16T02:44:31.372Z,67.72
2023-04-16T02:46:58.180Z,57.05
2023-04-16T02:49:25.635Z,70.10
2023-04-16T02:51:52.337Z,61.72
2023-04-16T02:54:19.386Z,82.10
2023-04-16T02:56:46.604Z,64.68
2023-04-16T02:59:13.678Z,66.07
2023-04-16T03:01:40.552Z,65.28
2023-04-16T03:04:07.753Z,71.88
2023-04-16T03:06:34.757Z,96.40
2023-04-16T03:09:01.746Z,79.90
2023-04-16T03:11:28.649Z,66.18
2023-04-16T03:13:56.761Z,65.43
2023-04-16T03:16:23.727Z,94.75
2023-04-16T03:18:50.926Z,68.25
2023-04-16T03:21:17.685Z,67.93
2023-04-16T03:23:44.992Z,69.50
2023-04-16T03:26:12.103Z,61.65
2023-04-16T03:28:39.110Z,81.35
2023-04-16T03:31:06.116Z,54.72
2023-04-16T03:33:33.223Z,68.65
2023-04-16T03:36:00.097Z,55.05
2023-04-16T03:38:27.153Z,48.33
2023-04-16T03:40:53.987Z,54.85
2023-04-16T03:43:21.139Z,47.30
2023-04-16T03:45:48.286Z,58.65
2023-04-16T03:48:16.033Z,56.67
2023-04-16T03:50:47.598Z,52.47
2023-04-16T03:53:14.863Z,48.92
2023-04-16T03:55:42.342Z,53.95
2023-04-16T03:58:09.612Z,49.97
2023-04-16T04:00:36.375Z,50.17
2023-04-16T04:03:03.580Z,50.33
2023-04-16T04:05:30.657Z,63.83
2023-04-16T04:07:57.746Z,58.53
2023-04-16T04:10:24.495Z,59.03
2023-04-16T04:12:51.494Z,75.80
2023-04-16T04:15:18.311Z,58.83
2023-04-16T04:17:45.578Z,55.47
2023-04-16T04:20:12.524Z,59.53
2023-04-16T04:22:39.535Z,67.03
2023-04-16T04:25:06.628Z,57.58
2023-04-16T04:27:33.681Z,63.78
2023-04-16T04:30:00.474Z,56.05
2023-04-16T04:32:27.568Z,58.92
2023-04-16T04:34:54.305Z,69.28
2023-04-16T04:37:21.461Z,60.40
2023-04-16T04:39:48.338Z,64.55
2023-04-16T04:42:25.527Z,62.40
2023-04-16T04:44:52.306Z,65.93
2023-04-16T04:47:19.333Z,68.53
2023-04-16T04:49:46.275Z,62.85
2023-04-16T04:52:14.037Z,53.60
2023-04-16T04:54:41.775Z,53.75
2023-04-16T04:57:08.973Z,47.50
2023-04-16T04:59:35.904Z,47.67
2023-04-16T05:02:03.560Z,52.15
2023-04-16T05:04:31.288Z,49.45
2023-04-16T05:06:58.378Z,48.20
2023-04-16T05:09:25.465Z,44.45
2023-04-16T05:11:52.929Z,41.85
2023-04-16T05:14:19.761Z,47.25
2023-04-16T05:16:46.853Z,52.20
2023-04-16T05:19:13.604Z,52.38
2023-04-16T05:21:40.777Z,53.30
2023-04-16T05:24:07.496Z,49.40
2023-04-16T05:26:34.501Z,53.80
2023-04-16T05:29:01.321Z,54.70
2023-04-16T05:31:28.356Z,45.95
2023-04-16T05:33:55.178Z,46.33
2023-04-16T05:36:22.653Z,43.38
2023-04-16T05:38:49.540Z,40.47
2023-04-16T05:41:16.595Z,40.83
2023-04-16T05:43:43.384Z,40.20
2023-04-16T05:46:11.048Z,42.95
2023-04-16T05:48:37.820Z,48.20
2023-04-16T05:51:05.140Z,52.30
2023-04-16T05:53:32.008Z,52.10
2023-04-16T05:55:59.011Z,61.70
2023-04-16T05:58:25.781Z,56.95
2023-04-16T06:00:52.871Z,47.15
2023-04-16T06:03:19.712Z,45.67
2023-04-16T06:05:46.875Z,53.05
2023-04-16T06:08:13.744Z,48.17
2023-04-16T06:10:40.907Z,55.63
2023-04-16T06:13:07.779Z,59.03
2023-04-16T06:15:34.811Z,47.70
2023-04-16T06:18:01.636Z,53.47
2023-04-16T06:20:28.947Z,46.72
2023-04-16T06:22:56.301Z,47.10
2023-04-16T06:25:23.422Z,40.20
2023-04-16T06:27:50.216Z,40.58
2023-04-16T06:30:17.250Z,41.67
2023-04-16T06:32:44.546Z,42.10
2023-04-16T06:35:11.655Z,40.92
2023-04-16T06:37:38.554Z,41.92
2023-04-16T06:40:08.868Z,47.17
2023-04-16T06:42:35.783Z,51.30
2023-04-16T06:45:03.071Z,51.20
2023-04-16T06:47:29.981Z,50.65
2023-04-16T06:49:57.167Z,49.83
2023-04-16T06:52:23.995Z,55.30
2023-04-16T06:54:51.133Z,54.60
2023-04-16T06:57:17.912Z,47.33
2023-04-16T06:59:45.160Z,47.72
2023-04-16T07:02:12.239Z,41.10
2023-04-16T07:04:39.451Z,38.85
2023-04-16T07:07:06.361Z,37.28
2023-04-16T07:09:33.555Z,31.45
2023-04-16T07:12:00.694Z,35.42
2023-04-16T07:14:27.670Z,40.00
2023-04-16T07:16:58.449Z,44.75
2023-04-16T07:19:26.086Z,40.17
2023-04-16T07:21:53.000Z,33.35
2023-04-16T07:24:20.114Z,38.35
2023-04-16T07:26:47.053Z,32.03
2023-04-16T07:29:14.202Z,33.78
2023-04-16T07:31:41.456Z,29.75
2023-04-16T07:34:08.701Z,31.05
2023-04-16T07:36:38.476Z,29.63
2023-04-16T07:39:09.023Z,27.15
2023-04-16T07:41:36.035Z,29.45
2023-04-16T07:44:03.731Z,24.80
2023-04-16T07:46:36.219Z,26.10
2023-04-16T07:49:07.026Z,21.75
2023-04-16T07:51:37.034Z,24.35
2023-04-16T07:54:04.140Z,23.58
2023-04-16T07:56:30.931Z,22.73
2023-04-16T07:59:02.882Z,19.30
2023-04-16T08:01:35.004Z,16.77
2023-04-16T08:04:02.495Z,15.75
2023-04-16T08:06:29.461Z,16.08
2023-04-16T08:08:56.720Z,17.30
2023-04-16T08:11:24.036Z,17.15
2023-04-16T08:13:51.160Z,16.23
2023-04-16T08:16:17.916Z,17.40
2023-04-16T08:18:45.216Z,16.67
2023-04-16T08:21:11.980Z,13.88
2023-04-16T08:23:39.176Z,13.13
2023-04-16T08:26:06.134Z,16.83
2023-04-16T08:28:33.461Z,10.80
2023-04-16T08:31:00.293Z,14.02
2023-04-16T08:33:27.365Z,12.68
2023-04-16T08:35:54.117Z,13.30
2023-04-16T08:38:21.185Z,15.40
2023-04-16T08:40:48.849Z,13.93
2023-04-16T08:43:17.769Z,16.38
2023-04-16T08:45:47.436Z,13.40
2023-04-16T08:48:15.757Z,15.13
2023-04-16T08:50:43.667Z,15.85
2023-04-16T08:53:19.830Z,15.15
2023-04-16T08:55:51.517Z,17.80
2023-04-16T08:58:23.304Z,14.65
2023-04-16T09:00:51.094Z,14.10
2023-04-16T09:03:21.617Z,14.57
2023-04-16T09:05:49.852Z,12.32
2023-04-16T09:08:17.595Z,12.73
2023-04-16T09:10:44.500Z,19.25
2023-04-16T09:13:13.518Z,15.43
2023-04-16T09:15:41.404Z,17.17
2023-04-16T09:18:08.873Z,16.48
2023-04-16T09:20:35.659Z,14.05
2023-04-16T09:23:02.918Z,16.02
2023-04-16T09:25:34.768Z,13.85
2023-04-16T09:28:01.862Z,13.73
2023-04-16T09:30:29.037Z,13.18
2023-04-16T09:33:22.461Z,14.52
2023-04-16T09:35:51.287Z,14.27
2023-04-16T09:38:19.543Z,12.63
2023-04-16T09:40:47.677Z,12.15
2023-04-16T09:43:19.015Z,12.20
2023-04-16T09:45:53.066Z,11.48
2023-04-16T09:48:33.199Z,11.95
2023-04-16T09:51:01.107Z,13.05
2023-04-16T09:53:32.305Z,11.68
2023-04-16T09:58:36.233Z,12.65
2023-04-16T10:01:05.564Z,13.73
2023-04-16T10:03:34.619Z,11.02
2023-04-16T10:06:20.781Z,13.57
2023-04-16T10:08:53.025Z,12.48
2023-04-16T10:11:21.313Z,12.52
2023-04-16T10:13:48.837Z,13.25
2023-04-16T10:16:15.965Z,14.30
2023-04-16T10:18:44.615Z,12.52
2023-04-16T10:21:13.031Z,10.63
2023-04-16T10:23:40.683Z,9.07
2023-04-16T10:26:07.913Z,9.20
2023-04-16T10:28:35.826Z,8.52
2023-04-16T10:31:05.632Z,11.35
2023-04-16T10:33:34.535Z,10.30
2023-04-16T10:36:22.852Z,9.10
2023-04-16T10:38:52.580Z,10.57
2023-04-16T10:41:22.662Z,11.05
2023-04-16T10:43:51.331Z,9.77
2023-04-16T10:46:28.982Z,10.52
2023-04-16T10:49:00.008Z,11.82
2023-04-16T10:51:31.653Z,10.60
2023-04-16T10:54:11.308Z,10.75
2023-04-16T10:56:38.487Z,11.45
2023-04-16T10:59:06.819Z,12.95
2023-04-16T11:01:36.243Z,11.52
2023-04-16T11:04:21.538Z,12.45
2023-04-16T11:07:19.785Z,11.68
2023-04-16T11:10:06.208Z,12.13
2023-04-16T11:12:45.180Z,10.02
2023-04-16T11:15:17.081Z,12.20
2023-04-16T11:17:45.950Z,11.55
2023-04-16T11:20:19.965Z,10.70
2023-04-16T11:22:55.026Z,10.57
2023-04-16T11:25:23.558Z,11.88
2023-04-16T11:27:52.020Z,9.90
2023-04-16T11:30:27.958Z,13.90
2023-04-16T11:32:54.936Z,10.82
2023-04-16T11:35:22.118Z,10.63
2023-04-16T11:37:49.029Z,9.75
2023-04-16T11:40:16.031Z,9.25
2023-04-16T11:42:43.482Z,10.02
2023-04-16T11:45:12.004Z,11.45
2023-04-16T11:47:45.885Z,9.02
2023-04-16T11:50:21.047Z,9.77
2023-04-16T11:52:49.031Z,8.57
2023-04-16T11:55:16.190Z,10.10
2023-04-16T11:57:43.046Z,12.00
2023-04-16T12:00:13.532Z,9.40
2023-04-16T12:02:46.689Z,8.88
2023-04-16T12:05:56.898Z,9.60
2023-04-16T12:08:33.023Z,9.82
2023-04-16T12:11:00.034Z,9.18
2023-04-16T12:13:26.859Z,10.98
2023-04-16T12:15:56.183Z,10.15
2023-04-16T12:18:26.219Z,9.70
2023-04-16T12:20:53.296Z,9.70
2023-04-16T12:23:28.683Z,9.88
2023-04-16T12:25:59.734Z,8.77
2023-04-16T12:28:38.609Z,8.85
2023-04-16T12:31:06.554Z,7.78
2023-04-16T12:33:33.493Z,9.10
2023-04-16T12:36:02.024Z,7.63
2023-04-16T12:38:29.617Z,7.57
2023-04-16T12:40:57.742Z,7.72
2023-04-16T12:43:25.305Z,7.28
2023-04-16T12:45:52.748Z,8.23
2023-04-16T12:48:19.625Z,7.35
2023-04-16T12:50:46.706Z,9.15
2023-04-16T12:53:13.544Z,8.63
2023-04-16T12:55:40.694Z,7.55
2023-04-16T12:58:10.567Z,7.30
2023-04-16T13:00:40.425Z,9.57
2023-04-16T13:03:07.571Z,7.85
2023-04-16T13:05:34.743Z,9.13
2023-04-16T13:08:01.567Z,7.80
2023-04-16T13:10:28.627Z,8.75
2023-04-16T13:12:55.598Z,8.10
2023-04-16T13:15:22.580Z,9.38
2023-04-16T13:17:49.497Z,7.65
2023-04-16T13:20:16.798Z,8.50
2023-04-16T13:22:43.531Z,10.30
2023-04-16T13:25:10.633Z,8.00
2023-04-16T13:27:37.375Z,8.77
2023-04-16T13:30:04.591Z,8.02
2023-04-16T13:32:31.885Z,7.68
2023-04-16T13:34:58.968Z,7.57
2023-04-16T13:37:25.813Z,7.95
2023-04-16T13:39:52.904Z,8.32
2023-04-16T13:42:19.834Z,7.57
2023-04-16T13:44:48.960Z,11.30
2023-04-16T13:47:16.128Z,8.73
2023-04-16T13:49:43.281Z,8.13
2023-04-16T13:52:10.035Z,9.70
2023-04-16T13:54:38.032Z,8.55
2023-04-16T13:57:05.008Z,8.00
2023-04-16T13:59:32.182Z,10.45
2023-04-16T14:01:59.292Z,10.25
2023-04-16T14:04:26.619Z,8.68
2023-04-16T14:06:53.467Z,7.57
2023-04-16T14:09:20.455Z,10.15
2023-04-16T14:11:47.269Z,8.68
2023-04-16T14:14:14.459Z,9.55
2023-04-16T14:16:41.285Z,9.98
2023-04-16T14:19:08.450Z,10.75
2023-04-16T14:21:36.011Z,8.27
2023-04-16T14:24:03.389Z,10.20
2023-04-16T14:26:30.278Z,8.88
2023-04-16T14:28:57.369Z,9.98
2023-04-16T14:31:24.248Z,9.15
2023-04-16T14:33:51.358Z,10.02
2023-04-16T14:36:18.207Z,9.18
2023-04-16T14:38:47.192Z,8.20
2023-04-16T14:41:14.032Z,9.48
2023-04-16T14:43:41.526Z,9.50
2023-04-16T14:46:08.386Z,9.75
2023-04-16T14:48:35.656Z,9.07
2023-04-16T14:51:02.611Z,8.43
2023-04-16T14:53:29.797Z,8.90
2023-04-16T14:55:59.070Z,9.00
2023-04-16T14:58:26.623Z,8.68
2023-04-16T15:00:53.660Z,8.75
2023-04-16T15:03:21.340Z,8.38
2023-04-16T15:05:54.931Z,10.45
2023-04-16T15:08:23.350Z,8.90
2023-04-16T15:10:50.843Z,8.73
2023-04-16T15:13:18.339Z,9.10
2023-04-16T15:15:45.592Z,8.77
2023-04-16T15:18:12.703Z,11.25
2023-04-16T15:20:39.514Z,10.13
2023-04-16T15:23:06.613Z,10.25
2023-04-16T15:25:33.565Z,11.60
2023-04-16T15:28:02.538Z,11.80
2023-04-16T15:30:31.021Z,11.73
2023-04-16T15:32:58.261Z,10.13
2023-04-16T15:35:25.282Z,10.80
2023-04-16T15:37:53.011Z,9.75
2023-04-16T15:40:20.623Z,12.13
2023-04-16T15:42:48.194Z,10.82
2023-04-16T15:45:14.933Z,10.43
2023-04-16T15:47:43.202Z,10.30
2023-04-16T15:50:10.118Z,10.05
2023-04-16T15:52:38.770Z,11.18
2023-04-16T15:55:06.289Z,9.93
2023-04-16T15:57:33.353Z,9.88
2023-04-16T16:00:07.064Z,9.30
2023-04-16T16:02:34.783Z,8.77
2023-04-16T16:05:01.908Z,9.48
2023-04-16T16:07:29.081Z,7.72
2023-04-16T16:09:56.366Z,8.38
2023-04-16T16:12:23.589Z,8.95
2023-04-16T16:14:50.995Z,8.52
2023-04-16T16:17:20.382Z,10.02
2023-04-16T16:19:47.272Z,10.63
2023-04-16T16:22:15.280Z,10.10
2023-04-16T16:24:42.220Z,9.15
2023-04-16T16:27:09.331Z,9.82
2023-04-16T16:29:36.102Z,11.45
2023-04-16T16:32:03.349Z,10.50
2023-04-16T16:34:30.328Z,11.02
2023-04-16T16:36:57.401Z,9.55
2023-04-16T16:39:25.384Z,8.15
2023-04-16T16:41:52.809Z,9.27
2023-04-16T16:44:20.746Z,9.88
2023-04-16T16:46:48.072Z,10.38
2023-04-16T16:49:15.794Z,8.52
2023-04-16T16:51:46.381Z,9.60
2023-04-16T16:54:13.702Z,7.15
2023-04-16T16:56:40.976Z,10.50
2023-04-16T16:59:09.111Z,13.10
2023-04-16T17:01:36.301Z,9.60
2023-04-16T17:04:03.355Z,9.57
2023-04-16T17:06:31.706Z,9.43
2023-04-16T17:08:58.661Z,10.13
2023-04-16T17:11:27.248Z,10.27
2023-04-16T17:13:54.377Z,8.40
2023-04-16T17:16:21.409Z,9.98
2023-04-16T17:18:48.416Z,10.65
2023-04-16T17:21:16.885Z,10.43
2023-04-16T17:23:43.773Z,11.35
2023-04-16T17:26:10.918Z,11.43
2023-04-16T17:28:37.748Z,12.30
2023-04-16T17:31:07.237Z,13.73
2023-04-16T17:33:34.414Z,16.70
2023-04-16T17:36:01.551Z,21.70
2023-04-16T17:38:28.315Z,13.95
2023-04-16T17:40:57.198Z,10.82
2023-04-16T17:43:24.440Z,10.68
2023-04-16T17:45:51.688Z,10.43
2023-04-16T17:48:18.544Z,13.55
2023-04-16T17:50:45.700Z,14.85
2023-04-16T17:53:12.736Z,11.43
2023-04-16T17:55:39.932Z,11.15
2023-04-16T17:58:06.724Z,14.75
2023-04-16T18:00:33.770Z,14.80
2023-04-16T18:03:00.772Z,17.25
2023-04-16T18:05:27.859Z,13.35
2023-04-16T18:07:55.660Z,16.15
2023-04-16T18:10:22.906Z,15.88
2023-04-16T18:12:49.925Z,19.40
2023-04-16T18:15:17.215Z,20.42
2023-04-16T18:17:44.056Z,23.98
2023-04-16T18:20:12.683Z,22.73
2023-04-16T18:22:39.903Z,23.83
2023-04-16T18:25:07.876Z,20.25
2023-04-16T18:27:34.906Z,23.48
2023-04-16T18:30:04.008Z,19.00
2023-04-16T18:32:32.723Z,20.90
2023-04-16T18:35:00.606Z,18.40
2023-04-16T18:37:27.598Z,19.98
2023-04-16T18:39:57.803Z,17.30
2023-04-16T18:42:28.064Z,16.63
2023-04-16T18:44:55.501Z,20.20
2023-04-16T18:47:22.390Z,22.50
2023-04-16T18:49:49.507Z,17.95
2023-04-16T18:52:16.484Z,21.42
2023-04-16T18:54:43.900Z,15.73
2023-04-16T18:57:10.965Z,18.73
2023-04-16T18:59:38.197Z,21.35
2023-04-16T19:02:05.120Z,22.35
2023-04-16T19:04:32.338Z,20.80
2023-04-16T19:06:59.196Z,23.38
2023-04-16T19:09:27.285Z,21.45
2023-04-16T19:11:54.041Z,27.90
2023-04-16T19:14:21.392Z,27.25
2023-04-16T19:16:48.104Z,24.60
2023-04-16T19:19:15.270Z,29.17
2023-04-16T19:21:42.157Z,23.95
2023-04-16T19:24:09.160Z,27.30
2023-04-16T19:26:35.991Z,26.80
2023-04-16T19:29:03.541Z,26.77
2023-04-16T19:31:30.540Z,29.30
2023-04-16T19:33:57.504Z,55.20
2023-04-16T19:36:24.338Z,49.72
2023-04-16T19:38:51.610Z,54.17
2023-04-16T19:41:18.378Z,49.30
2023-04-16T19:43:45.527Z,40.28
2023-04-16T19:46:12.500Z,36.30
2023-04-16T19:48:39.984Z,32.67
2023-04-16T19:51:06.928Z,32.33
2023-04-16T19:53:37.316Z,32.22
2023-04-16T19:56:04.313Z,28.48
2023-04-16T19:58:31.524Z,22.33
2023-04-16T20:00:58.686Z,24.38
2023-04-16T20:03:25.815Z,20.83
2023-04-16T20:05:52.783Z,18.00
2023-04-16T20:08:19.800Z,16.90
2023-04-16T20:10:46.604Z,17.02
2023-04-16T20:13:13.849Z,18.02
2023-04-16T20:15:40.615Z,16.75
2023-04-16T20:18:08.803Z,14.43
2023-04-16T20:20:37.194Z,16.20
2023-04-16T20:23:04.415Z,12.65
2023-04-16T20:25:31.485Z,17.58
2023-04-16T20:27:58.755Z,14.80
2023-04-16T20:30:29.383Z,15.68
2023-04-16T20:32:56.798Z,16.90
2023-04-16T20:35:23.737Z,15.57
2023-04-16T20:37:50.883Z,15.18
2023-04-16T20:40:17.692Z,17.33
2023-04-16T20:42:47.643Z,20.10
2023-04-16T20:45:14.404Z,19.33
2023-04-16T20:47:43.402Z,18.38
2023-04-16T20:50:11.364Z,17.38
2023-04-16T20:52:38.532Z,17.17
2023-04-16T20:55:05.901Z,16.88
2023-04-16T20:57:32.944Z,16.38
2023-04-16T20:59:59.987Z,15.77
2023-04-16T21:02:28.444Z,17.40
2023-04-16T21:04:55.659Z,16.67
2023-04-16T21:07:22.892Z,16.83
2023-04-16T21:09:49.708Z,16.15
2023-04-16T21:12:16.768Z,19.80
2023-04-16T21:14:43.504Z,19.77
2023-04-16T21:17:10.727Z,19.42
2023-04-16T21:19:37.461Z,17.83
2023-04-16T21:22:04.468Z,17.77
2023-04-16T21:24:32.118Z,19.45
2023-04-16T21:26:59.220Z,21.10
2023-04-16T21:29:26.150Z,20.77
2023-04-16T21:31:53.770Z,20.70
2023-04-16T21:34:20.818Z,18.08
2023-04-16T21:36:47.810Z,19.42
2023-04-16T21:39:17.410Z,16.70
2023-04-16T21:41:44.693Z,17.60
2023-04-16T21:44:11.690Z,17.35
2023-04-16T21:46:38.754Z,18.33
2023-04-16T21:49:05.626Z,18.73
2023-04-16T21:51:32.682Z,16.73
2023-04-16T21:53:59.420Z,17.63
2023-04-16T21:56:26.589Z,15.48
2023-04-16T21:58:53.302Z,17.85
2023-04-16T22:01:20.367Z,14.30
2023-04-16T22:03:50.757Z,17.10
2023-04-16T22:06:18.265Z,15.88
2023-04-16T22:08:45.094Z,16.48
2023-04-16T22:11:12.226Z,13.95
2023-04-16T22:13:41.652Z,13.25
2023-04-16T22:16:11.567Z,13.68
2023-04-16T22:18:38.983Z,14.95
2023-04-16T22:21:06.448Z,13.20
2023-04-16T22:23:33.808Z,14.18
2023-04-16T22:26:03.050Z,13.10
2023-04-16T22:28:29.906Z,16.25
2023-04-16T22:30:57.083Z,13.55
2023-04-16T22:33:23.938Z,14.70
2023-04-16T22:35:51.809Z,15.70
2023-04-16T22:38:18.501Z,12.77
2023-04-16T22:40:49.080Z,13.98
2023-04-16T22:43:17.655Z,15.45
2023-04-16T22:45:46.580Z,15.25
2023-04-16T22:48:14.099Z,15.82
2023-04-16T22:50:46.224Z,17.20
2023-04-16T22:53:13.921Z,14.77
2023-04-16T22:55:41.065Z,14.23
2023-04-16T22:58:08.823Z,16.90
2023-04-16T23:00:36.104Z,12.63
2023-04-16T23:03:05.215Z,15.73
2023-04-16T23:05:32.494Z,15.45
2023-04-16T23:07:59.340Z,15.95
2023-04-16T23:10:26.390Z,15.45
2023-04-16T23:12:53.299Z,16.65
2023-04-16T23:15:20.650Z,18.13
2023-04-16T23:17:47.393Z,19.35
2023-04-16T23:20:14.736Z,13.93
2023-04-16T23:22:41.747Z,17.58
2023-04-16T23:25:09.303Z,17.02
2023-04-16T23:27:36.859Z,16.42
2023-04-16T23:30:04.329Z,18.77
2023-04-16T23:32:31.700Z,19.50
2023-04-16T23:34:58.865Z,17.58
2023-04-16T23:37:25.823Z,16.48
2023-04-16T23:39:52.932Z,15.70
2023-04-16T23:42:19.744Z,16.83
2023-04-16T23:44:46.774Z,16.25
2023-04-16T23:47:13.442Z,16.27
2023-04-16T23:49:40.494Z,15.05
2023-04-16T23:52:07.335Z,14.57
2023-04-16T23:54:34.476Z,16.30
2023-04-16T23:57:01.763Z,15.00
2023-04-16T23:59:28.871Z,18.58
